ENSS

Vardø , Svartnes Airport

Vardø, Norway
METAR ENSS 191950Z 20024G35KT 3500 BLSN SCT006 BKN018 M08/M10 Q1009 RMK WIND 500FT 21035KT
Observed Flight Rules
Jan-19 @ 19:50 UTC (5 hours ago) Instrument Flight Rules
Wind Visibility Clouds Conditions
200° at 24 knots
 Gusting to 35 knots
3,492 meters
  • Scattered at 600' AGL
  • Broken at 1,800' AGL
  • Blowing
  • Snow
Temperatures Readings
Current -8°C / 18°F
Dewpoint -10°C / 14°F
Humidity 86%
Altimeter 29.79" Hg
Pressure 1009 hPa
Elevation 12
METAR ENSS 191950Z 20024G35KT 3500 BLSN SCT006 BKN018 M08/M10 Q1009 RMK WIND 500FT 21035KT
Observed Flight Rules
Jan-19 @ 19:50 UTC
(5 hours ago)
IFR
Wind Visibility
200° at 24 knots
 Gusting to 35 knots
3,492 meters
Clouds
  • Scattered at 600' AGL
  • Broken at 1,800' AGL
Conditions
  • Blowing
  • Snow
Temperature Dewpoint
-8°C / 18°F -10°C / 14°F
Humidity Altimeter Pressure
86% 29.79" Hg 1009 hPa